createdAt,value
2023-03-08T00:00:10.110Z,5.03
2023-03-08T00:02:39.645Z,4.10
2023-03-08T00:05:08.329Z,5.00
2023-03-08T00:07:35.949Z,3.30
2023-03-08T00:10:03.509Z,6.25
2023-03-08T00:12:31.028Z,3.45
2023-03-08T00:14:58.539Z,5.57
2023-03-08T00:17:27.536Z,5.88
2023-03-08T00:19:55.087Z,4.00
2023-03-08T00:22:22.602Z,2.10
2023-03-08T00:24:50.131Z,1.98
2023-03-08T00:27:17.692Z,2.75
2023-03-08T00:29:45.281Z,3.80
2023-03-08T00:32:12.839Z,4.38
2023-03-08T00:34:46.261Z,4.20
2023-03-08T00:37:14.227Z,2.10
2023-03-08T00:39:41.740Z,3.30
2023-03-08T00:42:09.341Z,2.45
2023-03-08T00:44:36.928Z,5.35
2023-03-08T00:47:04.549Z,3.70
2023-03-08T00:49:32.125Z,3.25
2023-03-08T00:52:00.947Z,2.45
2023-03-08T00:54:28.509Z,2.08
2023-03-08T00:56:56.015Z,4.60
2023-03-08T00:59:23.707Z,5.65
2023-03-08T01:01:51.528Z,4.68
2023-03-08T01:04:19.132Z,3.38
2023-03-08T01:06:46.711Z,2.70
2023-03-08T01:09:15.612Z,3.40
2023-03-08T01:11:44.193Z,3.33
2023-03-08T01:14:13.893Z,3.28
2023-03-08T01:16:41.988Z,2.53
2023-03-08T01:19:10.830Z,2.85
2023-03-08T01:21:38.365Z,1.92
2023-03-08T01:24:06.611Z,2.33
2023-03-08T01:26:35.473Z,2.83
2023-03-08T01:29:03.108Z,9.98
2023-03-08T01:31:31.821Z,2.55
2023-03-08T01:34:00.864Z,4.13
2023-03-08T01:36:29.222Z,4.30
2023-03-08T01:38:56.996Z,2.40
2023-03-08T01:41:27.627Z,3.88
2023-03-08T01:43:57.633Z,3.75
2023-03-08T01:46:30.096Z,5.32
2023-03-08T01:49:08.754Z,2.75
2023-03-08T01:51:40.584Z,5.25
2023-03-08T01:54:11.950Z,2.58
2023-03-08T01:56:41.238Z,8.32
2023-03-08T01:59:10.689Z,4.88
2023-03-08T02:01:39.033Z,2.75
2023-03-08T02:04:07.540Z,3.75
2023-03-08T02:06:36.184Z,4.20
2023-03-08T02:09:04.868Z,3.30
2023-03-08T02:11:35.340Z,3.85
2023-03-08T02:14:03.660Z,3.92
2023-03-08T02:16:34.345Z,4.75
2023-03-08T02:19:04.483Z,4.75
2023-03-08T02:21:33.292Z,3.85
2023-03-08T02:24:07.416Z,3.33
2023-03-08T02:26:37.022Z,3.60
2023-03-08T02:29:06.520Z,4.63
2023-03-08T02:31:34.084Z,3.33
2023-03-08T02:34:01.768Z,3.17
2023-03-08T02:36:29.299Z,3.45
2023-03-08T02:38:56.833Z,4.25
2023-03-08T02:41:25.786Z,4.00
2023-03-08T02:43:53.281Z,3.50
2023-03-08T02:46:20.891Z,5.25
2023-03-08T02:48:49.091Z,3.70
2023-03-08T02:51:16.608Z,3.00
2023-03-08T02:53:44.212Z,6.70
2023-03-08T02:56:11.764Z,3.97
2023-03-08T02:58:40.617Z,4.90
2023-03-08T03:01:12.471Z,3.90
2023-03-08T03:03:40.254Z,5.90
2023-03-08T03:06:14.548Z,5.40
2023-03-08T03:08:44.063Z,4.10
2023-03-08T03:11:13.295Z,7.97
2023-03-08T03:13:42.168Z,4.00
2023-03-08T03:16:14.096Z,5.63
2023-03-08T03:18:42.295Z,6.55
2023-03-08T03:21:12.023Z,5.43
2023-03-08T03:23:40.271Z,4.93
2023-03-08T03:26:11.572Z,4.20
2023-03-08T03:28:39.384Z,4.43
2023-03-08T03:31:10.166Z,4.75
2023-03-08T03:33:38.403Z,4.22
2023-03-08T03:36:07.638Z,4.82
2023-03-08T03:38:36.408Z,6.82
2023-03-08T03:41:06.708Z,4.78
2023-03-08T03:43:34.717Z,5.20
2023-03-08T03:46:04.362Z,6.03
2023-03-08T03:48:34.946Z,4.20
2023-03-08T03:51:04.641Z,3.55
2023-03-08T03:53:33.987Z,4.47
2023-03-08T03:56:04.739Z,4.13
2023-03-08T03:58:33.334Z,7.05
2023-03-08T04:01:01.165Z,3.47
2023-03-08T04:03:33.451Z,5.55
2023-03-08T04:06:07.686Z,2.63
2023-03-08T04:08:41.891Z,3.90
2023-03-08T04:11:14.616Z,7.60
2023-03-08T04:13:42.551Z,9.25
2023-03-08T04:16:11.671Z,6.70
2023-03-08T04:18:40.720Z,7.00
2023-03-08T04:21:08.554Z,11.30
2023-03-08T04:23:37.171Z,7.00
2023-03-08T04:26:07.243Z,7.65
2023-03-08T04:28:35.882Z,4.80
2023-03-08T04:31:12.809Z,4.38
2023-03-08T04:33:42.078Z,6.13
2023-03-08T04:36:10.505Z,3.65
2023-03-08T04:38:38.645Z,7.60
2023-03-08T04:41:11.756Z,4.18
2023-03-08T04:43:59.607Z,4.55
2023-03-08T04:46:39.679Z,5.03
2023-03-08T04:49:08.978Z,4.97
2023-03-08T04:51:42.353Z,4.78
2023-03-08T04:54:10.853Z,4.38
2023-03-08T04:56:44.148Z,4.18
2023-03-08T04:59:13.280Z,7.80
2023-03-08T05:01:42.588Z,3.35
2023-03-08T05:04:12.686Z,4.95
2023-03-08T05:06:42.253Z,3.78
2023-03-08T05:09:13.466Z,3.20
2023-03-08T05:11:42.944Z,4.07
2023-03-08T05:14:10.759Z,4.22
2023-03-08T05:16:38.511Z,4.40
2023-03-08T05:19:06.157Z,3.85
2023-03-08T05:21:40.248Z,4.68
2023-03-08T05:24:08.182Z,4.68
2023-03-08T05:26:37.561Z,3.22
2023-03-08T05:29:06.684Z,6.30
2023-03-08T05:31:36.486Z,3.90
2023-03-08T05:34:06.125Z,5.32
2023-03-08T05:36:37.667Z,4.85
2023-03-08T05:39:09.058Z,7.90
2023-03-08T05:41:49.981Z,8.20
2023-03-08T05:44:23.709Z,10.55
2023-03-08T05:46:51.793Z,11.43
2023-03-08T05:49:20.197Z,8.05
2023-03-08T05:51:47.804Z,10.55
2023-03-08T05:54:17.263Z,9.30
2023-03-08T05:56:47.703Z,9.38
2023-03-08T05:59:24.065Z,7.35
2023-03-08T06:01:52.193Z,9.25
2023-03-08T06:04:39.669Z,8.95
2023-03-08T06:07:07.346Z,11.50
2023-03-08T06:09:43.473Z,11.43
2023-03-08T06:12:15.197Z,12.00
2023-03-08T06:14:45.157Z,10.23
2023-03-08T06:17:14.997Z,9.93
2023-03-08T06:19:47.633Z,11.70
2023-03-08T06:22:17.175Z,12.10
2023-03-08T06:24:49.605Z,14.30
2023-03-08T06:27:21.094Z,14.13
2023-03-08T06:29:51.268Z,12.95
2023-03-08T06:32:20.199Z,14.35
2023-03-08T06:34:47.833Z,12.38
2023-03-08T06:37:15.515Z,11.98
2023-03-08T06:39:43.424Z,14.45
2023-03-08T06:42:12.390Z,9.95
2023-03-08T06:44:40.246Z,14.48
2023-03-08T06:47:07.993Z,12.85
2023-03-08T06:49:36.342Z,14.60
2023-03-08T06:52:04.310Z,16.05
2023-03-08T06:54:32.385Z,11.60
2023-03-08T06:57:05.173Z,15.30
2023-03-08T06:59:35.293Z,13.98
2023-03-08T07:02:02.883Z,13.23
2023-03-08T07:04:30.472Z,16.33
2023-03-08T07:06:59.223Z,15.10
2023-03-08T07:09:26.776Z,14.65
2023-03-08T07:11:54.355Z,15.40
2023-03-08T07:14:21.879Z,18.42
2023-03-08T07:16:50.758Z,14.32
2023-03-08T07:19:18.342Z,16.42
2023-03-08T07:21:45.853Z,13.88
2023-03-08T07:24:13.373Z,17.63
2023-03-08T07:26:41.090Z,15.85
2023-03-08T07:29:09.056Z,19.45
2023-03-08T07:31:36.791Z,19.98
2023-03-08T07:34:05.751Z,17.95
2023-03-08T07:36:34.043Z,17.05
2023-03-08T07:39:01.939Z,16.27
2023-03-08T07:41:31.653Z,22.00
2023-03-08T07:43:59.377Z,16.00
2023-03-08T07:46:28.316Z,17.30
2023-03-08T07:48:55.915Z,26.52
2023-03-08T07:51:25.173Z,21.00
2023-03-08T07:53:53.519Z,18.33
2023-03-08T07:56:21.195Z,17.88
2023-03-08T07:58:48.776Z,18.30
2023-03-08T08:01:16.356Z,18.70
2023-03-08T08:03:45.200Z,16.08
2023-03-08T08:06:12.827Z,17.63
2023-03-08T08:08:41.704Z,19.27
2023-03-08T08:11:13.848Z,16.50
2023-03-08T08:13:41.428Z,18.52
2023-03-08T08:16:09.218Z,17.00
2023-03-08T08:18:37.122Z,17.70
2023-03-08T08:21:07.266Z,15.80
2023-03-08T08:23:35.265Z,18.50
2023-03-08T08:26:08.070Z,21.52
2023-03-08T08:28:36.752Z,19.52
2023-03-08T08:31:07.644Z,18.90
2023-03-08T08:33:35.524Z,15.82
2023-03-08T08:36:05.186Z,18.80
2023-03-08T08:38:33.015Z,17.90
2023-03-08T08:41:00.772Z,18.25
2023-03-08T08:43:30.377Z,18.05
2023-03-08T08:45:59.681Z,16.95
2023-03-08T08:48:28.303Z,13.13
2023-03-08T08:50:56.297Z,17.52
2023-03-08T08:53:23.799Z,18.67
2023-03-08T08:55:51.586Z,18.35
2023-03-08T08:58:19.513Z,17.42
2023-03-08T09:00:48.410Z,14.05
2023-03-08T09:03:16.091Z,13.75
2023-03-08T09:05:45.833Z,16.00
2023-03-08T09:08:13.657Z,15.88
2023-03-08T09:10:41.966Z,17.02
2023-03-08T09:13:09.548Z,13.82
2023-03-08T09:15:37.504Z,14.32
2023-03-08T09:18:06.609Z,16.73
2023-03-08T09:20:34.265Z,14.73
2023-03-08T09:23:01.869Z,16.40
2023-03-08T09:25:29.440Z,20.02
2023-03-08T09:27:56.917Z,20.58
2023-03-08T09:30:24.476Z,19.23
2023-03-08T09:32:52.051Z,18.27
2023-03-08T09:35:20.940Z,18.67
2023-03-08T09:37:48.440Z,17.30
2023-03-08T09:40:20.897Z,17.05
2023-03-08T09:42:49.084Z,18.25
2023-03-08T09:45:24.816Z,17.25
2023-03-08T09:48:00.101Z,11.15
2023-03-08T09:50:46.486Z,12.88
2023-03-08T09:53:21.197Z,12.02
2023-03-08T09:55:52.028Z,12.35
2023-03-08T09:58:29.435Z,13.27
2023-03-08T10:01:01.364Z,17.50
2023-03-08T10:03:49.968Z,12.60
2023-03-08T10:06:26.170Z,11.48
2023-03-08T10:08:59.946Z,13.32
2023-03-08T10:11:34.104Z,17.00
2023-03-08T10:14:08.096Z,12.65
2023-03-08T10:16:40.158Z,9.60
2023-03-08T10:19:16.789Z,11.50
2023-03-08T10:21:46.223Z,12.70
2023-03-08T10:24:17.322Z,13.20
2023-03-08T10:26:45.754Z,11.75
2023-03-08T10:29:14.345Z,10.73
2023-03-08T10:31:46.999Z,10.02
2023-03-08T10:34:17.872Z,9.98
2023-03-08T10:36:52.130Z,12.55
2023-03-08T10:39:20.946Z,11.43
2023-03-08T10:41:50.451Z,10.55
2023-03-08T10:44:31.405Z,14.18
2023-03-08T10:46:59.121Z,10.43
2023-03-08T10:49:28.123Z,10.45
2023-03-08T10:52:00.128Z,9.30
2023-03-08T10:54:28.613Z,9.68
2023-03-08T10:56:58.981Z,8.13
2023-03-08T10:59:32.437Z,8.02
2023-03-08T11:02:01.956Z,8.85
2023-03-08T11:04:31.219Z,11.05
2023-03-08T11:07:11.321Z,8.65
2023-03-08T11:09:38.869Z,8.82
2023-03-08T11:12:06.856Z,11.05
2023-03-08T11:14:35.411Z,6.50
2023-03-08T11:17:11.160Z,9.68
2023-03-08T11:19:53.940Z,8.18
2023-03-08T11:22:34.229Z,7.68
2023-03-08T11:25:15.241Z,8.30
2023-03-08T11:27:57.997Z,8.30
2023-03-08T11:30:36.684Z,8.00
2023-03-08T11:33:30.121Z,7.13
2023-03-08T11:36:03.907Z,7.97
2023-03-08T11:38:34.345Z,7.55
2023-03-08T11:41:11.753Z,6.57
2023-03-08T11:43:56.397Z,6.88
2023-03-08T11:46:27.852Z,20.42
2023-03-08T11:49:19.668Z,8.30
2023-03-08T11:51:56.949Z,8.40
2023-03-08T11:54:41.703Z,9.75
2023-03-08T11:57:11.546Z,8.18
2023-03-08T11:59:43.984Z,9.23
2023-03-08T12:02:17.669Z,7.25
2023-03-08T12:04:55.265Z,6.78
2023-03-08T12:07:30.002Z,6.32
2023-03-08T12:10:04.274Z,7.15
2023-03-08T12:12:36.184Z,5.82
2023-03-08T12:15:14.739Z,8.48
2023-03-08T12:17:47.376Z,9.15
2023-03-08T12:20:16.046Z,8.02
2023-03-08T12:22:47.091Z,6.47
2023-03-08T12:25:25.153Z,9.20
2023-03-08T12:27:59.230Z,10.43
2023-03-08T12:30:39.420Z,8.57
2023-03-08T12:33:10.401Z,7.80
2023-03-08T12:35:50.025Z,8.00
2023-03-08T12:38:32.708Z,8.38
2023-03-08T12:41:02.466Z,10.02
2023-03-08T12:43:33.704Z,7.70
2023-03-08T12:46:04.017Z,7.18
2023-03-08T12:48:35.396Z,8.05
2023-03-08T12:51:09.665Z,7.30
2023-03-08T12:53:40.212Z,7.45
2023-03-08T12:56:24.045Z,6.80
2023-03-08T12:58:54.897Z,7.53
2023-03-08T13:01:34.342Z,7.07
2023-03-08T13:04:04.093Z,9.38
2023-03-08T13:07:10.159Z,8.07
2023-03-08T13:09:44.718Z,8.00
2023-03-08T13:12:23.504Z,7.38
2023-03-08T13:15:02.395Z,5.50
2023-03-08T13:17:40.163Z,5.43
2023-03-08T13:20:20.826Z,5.45
2023-03-08T13:23:01.590Z,5.18
2023-03-08T13:25:41.747Z,6.45
2023-03-08T13:28:13.862Z,6.10
2023-03-08T13:30:47.096Z,7.32
2023-03-08T13:33:19.122Z,7.25
2023-03-08T13:35:55.868Z,6.50
2023-03-08T13:38:25.603Z,5.90
2023-03-08T13:40:54.483Z,5.38
2023-03-08T13:43:24.489Z,5.03
2023-03-08T13:45:54.340Z,4.38
2023-03-08T13:48:22.889Z,5.05
2023-03-08T13:50:52.582Z,24.35
2023-03-08T13:53:23.190Z,6.38
2023-03-08T13:55:53.683Z,5.30
2023-03-08T13:58:28.721Z,7.78
2023-03-08T14:01:04.037Z,4.95
2023-03-08T14:03:33.270Z,6.70
2023-03-08T14:06:00.949Z,6.03
2023-03-08T14:08:29.003Z,5.43
2023-03-08T14:11:00.187Z,6.57
2023-03-08T14:13:31.774Z,5.38
2023-03-08T14:16:01.307Z,6.90
2023-03-08T14:18:37.541Z,5.38
2023-03-08T14:21:15.814Z,6.07
2023-03-08T14:23:47.797Z,6.50
2023-03-08T14:26:37.740Z,5.10
2023-03-08T14:29:13.216Z,5.07
2023-03-08T14:31:52.546Z,4.78
2023-03-08T14:34:22.159Z,4.85
2023-03-08T14:36:55.054Z,7.15
2023-03-08T14:39:25.043Z,4.60
2023-03-08T14:41:53.211Z,6.20
2023-03-08T14:44:23.817Z,4.72
2023-03-08T14:46:58.238Z,5.32
2023-03-08T14:49:28.338Z,4.97
2023-03-08T14:51:56.303Z,5.45
2023-03-08T14:54:35.028Z,4.28
2023-03-08T14:57:16.970Z,4.53
2023-03-08T14:59:46.760Z,7.15
2023-03-08T15:02:16.323Z,4.78
2023-03-08T15:04:45.646Z,5.93
2023-03-08T15:07:19.919Z,4.22
2023-03-08T15:09:48.385Z,6.40
2023-03-08T15:12:16.006Z,5.72
2023-03-08T15:14:43.592Z,4.00
2023-03-08T15:17:12.507Z,3.45
2023-03-08T15:19:40.058Z,3.22
2023-03-08T15:22:07.709Z,3.28
2023-03-08T15:24:35.444Z,3.03
2023-03-08T15:27:03.001Z,4.75
2023-03-08T15:29:32.376Z,2.88
2023-03-08T15:32:00.656Z,5.60
2023-03-08T15:34:29.679Z,5.53
2023-03-08T15:36:57.259Z,3.22
2023-03-08T15:39:24.882Z,3.95
2023-03-08T15:41:52.952Z,5.20
2023-03-08T15:44:20.530Z,3.70
2023-03-08T15:46:48.162Z,3.23
2023-03-08T15:49:15.865Z,7.47
2023-03-08T15:51:44.819Z,4.70
2023-03-08T15:54:12.557Z,2.65
2023-03-08T15:56:40.101Z,3.05
2023-03-08T15:59:08.111Z,3.40
2023-03-08T16:01:35.683Z,5.60
2023-03-08T16:04:03.229Z,4.18
2023-03-08T16:06:30.838Z,3.55
2023-03-08T16:08:59.699Z,5.03
2023-03-08T16:11:27.420Z,2.85
2023-03-08T16:13:55.442Z,2.95
2023-03-08T16:16:32.145Z,3.83
2023-03-08T16:19:06.128Z,4.15
2023-03-08T16:21:33.628Z,3.78
2023-03-08T16:24:02.617Z,4.03
2023-03-08T16:26:30.374Z,3.35
2023-03-08T16:28:58.072Z,2.83
2023-03-08T16:31:25.661Z,3.72
2023-03-08T16:33:53.176Z,4.22
2023-03-08T16:36:21.065Z,4.25
2023-03-08T16:38:48.765Z,3.40
2023-03-08T16:41:17.660Z,4.43
2023-03-08T16:43:48.376Z,5.95
2023-03-08T16:46:21.207Z,3.10
2023-03-08T16:48:50.257Z,2.53
2023-03-08T16:51:20.172Z,3.50
2023-03-08T16:53:48.005Z,3.13
2023-03-08T16:56:20.327Z,2.97
2023-03-08T16:58:48.139Z,2.70
2023-03-08T17:01:17.789Z,2.17
2023-03-08T17:03:45.577Z,3.70
2023-03-08T17:06:15.212Z,3.13
2023-03-08T17:08:42.805Z,2.65
2023-03-08T17:11:15.874Z,4.03
2023-03-08T17:13:47.561Z,6.13
2023-03-08T17:16:15.233Z,3.35
2023-03-08T17:18:42.949Z,3.70
2023-03-08T17:21:10.558Z,3.33
2023-03-08T17:23:38.099Z,3.85
2023-03-08T17:26:06.273Z,3.03
2023-03-08T17:28:35.688Z,4.22
2023-03-08T17:31:08.334Z,2.60
2023-03-08T17:33:35.912Z,4.20
2023-03-08T17:36:05.178Z,4.78
2023-03-08T17:38:33.393Z,5.07
2023-03-08T17:41:01.558Z,4.30
2023-03-08T17:43:29.064Z,5.75
2023-03-08T17:46:00.726Z,6.00
2023-03-08T17:48:30.776Z,4.65
2023-03-08T17:51:02.446Z,4.40
2023-03-08T17:53:29.996Z,3.97
2023-03-08T17:56:00.120Z,5.25
2023-03-08T17:58:27.821Z,4.60
2023-03-08T18:00:55.845Z,10.52
2023-03-08T18:03:23.575Z,4.15
2023-03-08T18:05:53.890Z,3.30
2023-03-08T18:08:21.493Z,5.38
2023-03-08T18:10:49.037Z,4.95
2023-03-08T18:13:16.702Z,4.93
2023-03-08T18:15:44.203Z,4.30
2023-03-08T18:18:11.734Z,4.45
2023-03-08T18:20:39.201Z,4.82
2023-03-08T18:23:08.213Z,6.20
2023-03-08T18:25:36.182Z,5.25
2023-03-08T18:28:03.778Z,3.88
2023-03-08T18:30:31.373Z,7.45
2023-03-08T18:32:58.928Z,6.55
2023-03-08T18:35:26.591Z,5.68
2023-03-08T18:37:54.133Z,8.00
2023-03-08T18:40:23.172Z,6.57
2023-03-08T18:42:50.710Z,6.75
2023-03-08T18:45:18.948Z,6.97
2023-03-08T18:47:50.670Z,8.88
2023-03-08T18:50:19.328Z,4.13
2023-03-08T18:52:47.417Z,6.88
2023-03-08T18:55:15.079Z,20.77
2023-03-08T18:57:43.931Z,5.28
2023-03-08T19:00:12.920Z,6.75
2023-03-08T19:02:40.626Z,4.80
2023-03-08T19:05:08.808Z,5.78
2023-03-08T19:07:36.354Z,7.63
2023-03-08T19:10:03.926Z,16.02
2023-03-08T19:12:33.589Z,11.93
2023-03-08T19:15:03.011Z,4.93
2023-03-08T19:17:30.578Z,6.65
2023-03-08T19:19:58.301Z,3.80
2023-03-08T19:22:25.937Z,7.60
2023-03-08T19:24:53.510Z,5.72
2023-03-08T19:27:21.402Z,7.28
2023-03-08T19:29:48.953Z,7.55
2023-03-08T19:32:18.495Z,7.25
2023-03-08T19:34:48.330Z,8.02
2023-03-08T19:37:15.891Z,7.10
2023-03-08T19:39:43.907Z,7.25
2023-03-08T19:42:14.335Z,8.07
2023-03-08T19:44:42.522Z,8.07
2023-03-08T19:47:10.321Z,5.13
2023-03-08T19:49:40.375Z,7.22
2023-03-08T19:52:08.402Z,6.32
2023-03-08T19:54:36.291Z,6.88
2023-03-08T19:57:04.247Z,5.50
2023-03-08T19:59:32.636Z,7.18
2023-03-08T20:02:00.259Z,6.38
2023-03-08T20:04:29.247Z,7.68
2023-03-08T20:07:00.420Z,6.57
2023-03-08T20:09:28.588Z,7.05
2023-03-08T20:11:58.897Z,8.07
2023-03-08T20:14:27.794Z,5.82
2023-03-08T20:16:55.820Z,5.70
2023-03-08T20:19:23.615Z,7.13
2023-03-08T20:21:51.182Z,7.97
2023-03-08T20:24:20.633Z,8.75
2023-03-08T20:26:48.372Z,6.22
2023-03-08T20:29:16.074Z,8.25
2023-03-08T20:31:44.012Z,6.70
2023-03-08T20:34:11.748Z,6.00
2023-03-08T20:36:39.257Z,5.10
2023-03-08T20:39:06.954Z,5.22
2023-03-08T20:41:35.761Z,5.43
2023-03-08T20:44:03.290Z,6.60
2023-03-08T20:46:33.390Z,10.18
2023-03-08T20:49:01.604Z,5.53
2023-03-08T20:51:29.668Z,5.05
2023-03-08T20:53:58.325Z,7.63
2023-03-08T20:56:26.440Z,6.57
2023-03-08T20:59:00.242Z,7.07
2023-03-08T21:01:29.860Z,5.65
2023-03-08T21:03:57.457Z,5.93
2023-03-08T21:06:26.986Z,6.72
2023-03-08T21:08:54.574Z,6.43
2023-03-08T21:11:22.432Z,4.95
2023-03-08T21:13:51.312Z,6.50
2023-03-08T21:16:22.099Z,7.32
2023-03-08T21:18:50.626Z,6.40
2023-03-08T21:21:19.950Z,5.32
2023-03-08T21:23:47.503Z,7.35
2023-03-08T21:26:15.005Z,7.57
2023-03-08T21:28:42.791Z,9.05
2023-03-08T21:31:11.105Z,7.07
2023-03-08T21:33:40.038Z,5.28
2023-03-08T21:36:08.295Z,4.55
2023-03-08T21:38:35.946Z,5.78
2023-03-08T21:41:03.719Z,4.32
2023-03-08T21:43:31.367Z,5.47
2023-03-08T21:45:58.958Z,4.05
2023-03-08T21:48:26.574Z,7.32
2023-03-08T21:50:55.471Z,5.30
2023-03-08T21:53:23.095Z,5.80
2023-03-08T21:55:50.705Z,7.13
2023-03-08T21:58:18.435Z,7.20
2023-03-08T22:00:46.540Z,5.47
2023-03-08T22:03:14.180Z,4.80
2023-03-08T22:05:41.929Z,5.47
2023-03-08T22:08:10.917Z,5.90
2023-03-08T22:10:38.687Z,5.70
2023-03-08T22:13:06.420Z,5.25
2023-03-08T22:15:33.984Z,6.22
2023-03-08T22:18:06.099Z,4.97
2023-03-08T22:20:33.940Z,5.85
2023-03-08T22:23:02.027Z,7.03
2023-03-08T22:25:31.058Z,5.97
2023-03-08T22:27:58.584Z,6.47
2023-03-08T22:30:26.230Z,4.32
2023-03-08T22:32:55.299Z,6.50
2023-03-08T22:35:23.103Z,5.90
2023-03-08T22:37:50.962Z,5.55
2023-03-08T22:40:19.411Z,4.82
2023-03-08T22:42:48.379Z,6.47
2023-03-08T22:45:16.304Z,5.28
2023-03-08T22:47:44.108Z,3.85
2023-03-08T22:50:13.047Z,5.63
2023-03-08T22:52:40.711Z,4.35
2023-03-08T22:55:08.963Z,4.63
2023-03-08T22:57:37.435Z,5.45
2023-03-08T23:00:14.117Z,6.20
2023-03-08T23:02:41.717Z,4.93
2023-03-08T23:05:12.758Z,4.65
2023-03-08T23:07:40.334Z,4.28
2023-03-08T23:10:09.154Z,5.88
2023-03-08T23:12:36.891Z,5.40
2023-03-08T23:15:07.442Z,4.80
2023-03-08T23:17:35.697Z,5.03
2023-03-08T23:20:04.297Z,5.25
2023-03-08T23:22:32.011Z,5.68
2023-03-08T23:24:59.564Z,7.20
2023-03-08T23:27:27.164Z,4.32
2023-03-08T23:29:54.796Z,5.57
2023-03-08T23:32:23.653Z,4.53
2023-03-08T23:34:51.193Z,4.13
2023-03-08T23:37:18.688Z,4.90
2023-03-08T23:39:46.285Z,3.70
2023-03-08T23:42:13.826Z,4.88
2023-03-08T23:44:41.370Z,4.55
2023-03-08T23:47:09.166Z,4.70
2023-03-08T23:49:38.014Z,5.35
2023-03-08T23:52:06.100Z,4.10
2023-03-08T23:54:33.892Z,5.43
2023-03-08T23:57:01.721Z,4.70
2023-03-08T23:59:29.348Z,4.35
